Time;durP1;ratioP1;P1;durP2;ratioP2;P2;SDS_P1;SDS_P2;PMS_P1;PMS_P2;Temp;Humidity;BMP_temperature;BMP_pressure;BME280_temperature;BME280_humidity;BME280_pressure;Samples;Min_cycle;Max_cycle;Signal;HPM_P1;HPM_P2
2022/09/18 00:00:43;;;;;;;3.90;1.30;;;11.70;99.90;;;;;;5054266;28;20132;-61
2022/09/18 00:03:09;;;;;;;3.35;1.20;;;11.50;99.90;;;;;;5054947;28;20090;-60
2022/09/18 00:05:36;;;;;;;2.13;1.13;;;11.50;99.90;;;;;;5053106;28;20417;-60
2022/09/18 00:08:02;;;;;;;4.70;1.40;;;11.40;99.90;;;;;;5054607;28;20397;-61
2022/09/18 00:10:28;;;;;;;4.80;1.33;;;11.30;99.90;;;;;;5054426;28;20017;-60
2022/09/18 00:12:54;;;;;;;4.13;1.10;;;11.30;99.90;;;;;;5054344;28;20493;-60
2022/09/18 00:15:20;;;;;;;2.65;1.10;;;11.30;99.90;;;;;;5052680;28;20037;-60
2022/09/18 00:17:45;;;;;;;2.55;1.25;;;11.40;99.90;;;;;;5054228;28;20039;-61
2022/09/18 00:20:11;;;;;;;3.60;1.50;;;11.40;99.90;;;;;;5054275;28;20099;-61
2022/09/18 00:22:38;;;;;;;4.05;1.30;;;11.30;99.90;;;;;;5054424;28;20160;-60
2022/09/18 00:25:04;;;;;;;2.58;1.30;;;11.20;99.90;;;;;;5054101;28;20033;-61
2022/09/18 00:27:30;;;;;;;2.95;1.10;;;11.10;99.90;;;;;;5054219;28;20025;-61
2022/09/18 00:29:55;;;;;;;2.47;1.20;;;11.10;99.90;;;;;;5053691;28;20079;-61
2022/09/18 00:32:21;;;;;;;4.13;1.25;;;11.10;99.90;;;;;;5053865;28;20064;-61
2022/09/18 00:34:47;;;;;;;2.95;1.10;;;10.90;99.90;;;;;;5054567;28;20087;-61
2022/09/18 00:37:12;;;;;;;2.70;1.20;;;10.80;99.90;;;;;;5053929;28;20474;-61
2022/09/18 00:39:39;;;;;;;3.38;1.40;;;10.90;99.90;;;;;;5053678;28;20453;-61
2022/09/18 00:42:05;;;;;;;4.35;1.40;;;10.90;99.90;;;;;;5053782;28;20371;-61
2022/09/18 00:44:59;;;;;;;5.50;1.30;;;11.00;99.90;;;;;;5053452;28;20103;-61
2022/09/18 00:47:29;;;;;;;4.28;1.40;;;10.90;99.90;;;;;;5052577;28;20033;-60
2022/09/18 00:50:09;;;;;;;3.60;1.35;;;10.80;99.90;;;;;;5053900;28;20070;-61
2022/09/18 00:52:50;;;;;;;3.58;1.30;;;10.80;99.90;;;;;;5053675;28;20067;-61
2022/09/18 00:55:22;;;;;;;3.50;1.40;;;10.80;99.90;;;;;;5053445;28;20035;-61
2022/09/18 00:57:53;;;;;;;3.70;1.40;;;10.80;99.90;;;;;;5053493;28;20116;-60
2022/09/18 01:00:19;;;;;;;3.03;1.40;;;10.70;99.90;;;;;;5053614;28;20037;-60
2022/09/18 01:02:47;;;;;;;3.03;1.48;;;10.60;99.90;;;;;;5053593;28;20079;-60
2022/09/18 01:05:17;;;;;;;2.63;1.50;;;10.70;99.90;;;;;;5053469;28;20086;-63
2022/09/18 01:08:00;;;;;;;5.53;1.77;;;10.60;99.90;;;;;;5053503;28;20017;-60
2022/09/18 01:10:39;;;;;;;5.55;1.65;;;10.60;99.90;;;;;;5053830;28;20017;-60
2022/09/18 01:13:19;;;;;;;3.97;1.58;;;10.60;99.90;;;;;;5052905;28;20082;-61
2022/09/18 01:16:09;;;;;;;3.88;1.52;;;10.60;99.90;;;;;;5053074;28;20604;-60
2022/09/18 01:18:53;;;;;;;3.25;1.60;;;10.60;99.90;;;;;;5053349;28;20065;-60
2022/09/18 01:22:00;;;;;;;4.32;1.80;;;10.50;99.90;;;;;;5052871;28;20056;-61
2022/09/18 01:24:49;;;;;;;5.80;1.50;;;10.40;99.90;;;;;;5052962;28;20116;-61
2022/09/18 01:27:35;;;;;;;3.97;1.73;;;10.50;99.90;;;;;;5052666;28;20021;-60
2022/09/18 01:30:07;;;;;;;3.30;1.65;;;10.50;99.90;;;;;;5052942;28;20025;-60
2022/09/18 01:32:48;;;;;;;4.15;1.65;;;10.60;99.90;;;;;;5051846;28;20060;-61
2022/09/18 01:35:24;;;;;;;2.97;1.52;;;10.50;99.90;;;;;;5052767;28;20021;-60
2022/09/18 01:38:08;;;;;;;4.53;1.60;;;10.60;99.90;;;;;;5052871;28;20029;-60
2022/09/18 01:40:52;;;;;;;3.33;1.50;;;10.50;99.90;;;;;;5052429;28;20029;-59
2022/09/18 01:43:19;;;;;;;;;;;10.50;99.90;;;;;;5052625;28;20064;-60
2022/09/18 01:45:52;;;;;;;4.05;1.80;;;10.50;99.90;;;;;;5052642;28;20350;-60
2022/09/18 01:48:30;;;;;;;3.57;1.67;;;10.50;99.90;;;;;;5052775;28;20036;-61
2022/09/18 01:51:06;;;;;;;4.05;1.60;;;10.40;99.90;;;;;;5051945;28;20264;-60
2022/09/18 01:53:43;;;;;;;4.50;1.80;;;10.30;99.90;;;;;;5052215;28;20029;-61
2022/09/18 01:56:15;;;;;;;4.35;1.45;;;10.30;99.90;;;;;;5051900;28;20083;-60
2022/09/18 01:58:41;;;;;;;4.32;1.60;;;10.40;99.90;;;;;;5052233;28;20025;-60
2022/09/18 02:01:15;;;;;;;3.10;1.60;;;10.40;99.90;;;;;;5052730;28;20032;-61
2022/09/18 02:03:49;;;;;;;5.78;1.63;;;10.30;99.90;;;;;;5052484;28;20021;-61
2022/09/18 02:06:16;;;;;;;;;;;10.40;99.90;;;;;;5052691;28;20440;-61
2022/09/18 02:08:49;;;;;;;4.80;1.70;;;10.30;99.90;;;;;;5050975;28;20377;-60
2022/09/18 02:11:17;;;;;;;5.20;1.60;;;10.20;99.90;;;;;;5052032;28;20091;-60
2022/09/18 02:14:17;;;;;;;4.15;1.58;;;10.30;99.90;;;;;;5052186;28;20031;-60
2022/09/18 02:16:50;;;;;;;2.35;1.52;;;10.20;99.90;;;;;;5052214;28;20112;-60
2022/09/18 02:19:24;;;;;;;3.63;1.40;;;10.30;99.90;;;;;;5052132;28;20429;-60
2022/09/18 02:21:52;;;;;;;4.45;1.50;;;10.20;99.90;;;;;;5052007;28;20041;-60
2022/09/18 02:24:20;;;;;;;3.88;1.55;;;10.10;99.90;;;;;;5051745;28;20040;-60
2022/09/18 02:26:48;;;;;;;3.70;1.58;;;10.10;99.90;;;;;;5052590;28;20028;-60
2022/09/18 02:29:17;;;;;;;4.65;1.33;;;10.20;99.90;;;;;;5052280;28;20025;-60
2022/09/18 02:31:42;;;;;;;4.07;1.40;;;10.10;99.90;;;;;;5051963;28;20025;-60
2022/09/18 02:34:09;;;;;;;5.75;1.50;;;10.20;99.90;;;;;;5052016;28;20032;-60
2022/09/18 02:37:05;;;;;;;4.75;1.33;;;10.00;99.90;;;;;;5052391;28;20041;-60
2022/09/18 02:39:59;;;;;;;2.20;1.20;;;10.20;99.90;;;;;;5050980;28;20013;-60
2022/09/18 02:42:48;;;;;;;2.35;1.23;;;10.20;99.90;;;;;;5052300;28;20470;-60
2022/09/18 02:45:17;;;;;;;3.70;1.48;;;10.10;99.90;;;;;;5051813;28;20518;-60
2022/09/18 02:48:07;;;;;;;2.65;1.20;;;10.10;99.90;;;;;;5051790;28;20055;-61
2022/09/18 02:50:52;;;;;;;2.90;1.10;;;10.10;99.90;;;;;;5052020;28;20029;-60
2022/09/18 02:53:39;;;;;;;3.80;1.50;;;10.10;99.90;;;;;;5051757;28;20025;-61
2022/09/18 02:56:21;;;;;;;5.38;1.30;;;10.00;99.90;;;;;;5054050;28;20083;-60
2022/09/18 02:58:54;;;;;;;6.03;1.50;;;10.00;99.90;;;;;;5056107;28;20060;-61
2022/09/18 03:01:24;;;;;;;3.65;1.35;;;9.80;99.90;;;;;;5055875;28;20512;-67
2022/09/18 03:03:50;;;;;;;3.50;1.20;;;9.80;99.90;;;;;;5055865;28;20049;-62
2022/09/18 03:06:16;;;;;;;4.00;1.55;;;9.90;99.90;;;;;;5055707;28;20025;-60
2022/09/18 03:08:42;;;;;;;3.78;1.40;;;9.80;99.90;;;;;;5055690;28;20033;-60
2022/09/18 03:11:08;;;;;;;4.50;1.30;;;9.70;99.90;;;;;;5055635;28;20045;-61
2022/09/18 03:13:34;;;;;;;2.90;1.15;;;9.70;99.90;;;;;;5055515;28;20075;-60
2022/09/18 03:16:00;;;;;;;3.20;1.17;;;9.70;99.90;;;;;;5055641;28;20502;-61
2022/09/18 03:18:27;;;;;;;2.40;1.25;;;9.70;99.90;;;;;;5056058;28;20043;-61
2022/09/18 03:20:52;;;;;;;4.85;1.48;;;9.60;99.90;;;;;;5057101;28;20108;-60
2022/09/18 03:23:18;;;;;;;3.88;1.30;;;9.60;99.90;;;;;;5057304;28;20112;-60
2022/09/18 03:25:44;;;;;;;3.42;1.30;;;9.60;99.90;;;;;;5055312;28;20037;-60
2022/09/18 03:28:09;;;;;;;6.13;1.60;;;9.60;99.90;;;;;;5054115;28;20374;-60
2022/09/18 03:30:35;;;;;;;2.15;1.10;;;9.50;99.90;;;;;;5055285;28;20025;-60
2022/09/18 03:33:01;;;;;;;3.88;1.83;;;9.60;99.90;;;;;;5055849;28;20032;-60
2022/09/18 03:35:27;;;;;;;2.50;1.10;;;9.60;99.90;;;;;;5053849;28;20041;-60
2022/09/18 03:37:54;;;;;;;4.43;1.38;;;9.50;99.90;;;;;;5054714;28;20056;-60
2022/09/18 03:40:20;;;;;;;3.20;1.20;;;9.40;99.90;;;;;;5053710;28;20033;-60
2022/09/18 03:42:47;;;;;;;2.55;1.17;;;9.50;99.90;;;;;;5055208;28;20074;-60
2022/09/18 03:45:12;;;;;;;3.13;1.23;;;9.40;99.90;;;;;;5055341;28;20044;-60
2022/09/18 03:47:39;;;;;;;4.10;1.23;;;9.40;99.90;;;;;;5054891;28;20025;-60
2022/09/18 03:50:05;;;;;;;2.60;1.10;;;9.40;99.90;;;;;;5055077;28;20071;-60
2022/09/18 03:52:32;;;;;;;5.53;1.40;;;9.40;99.90;;;;;;5054851;28;20389;-60
2022/09/18 03:54:58;;;;;;;4.07;1.08;;;9.40;99.90;;;;;;5054584;28;20053;-60
2022/09/18 03:57:24;;;;;;;3.33;1.35;;;9.40;99.90;;;;;;5054824;28;20060;-60
2022/09/18 03:59:49;;;;;;;3.22;1.20;;;9.40;99.90;;;;;;5054748;28;20021;-60
2022/09/18 04:02:15;;;;;;;2.70;1.05;;;9.30;99.90;;;;;;5053735;28;20040;-60
2022/09/18 04:04:41;;;;;;;4.97;1.40;;;9.30;99.90;;;;;;5054748;28;20029;-60
2022/09/18 04:07:07;;;;;;;3.75;1.40;;;9.20;99.90;;;;;;5053769;28;20082;-60
2022/09/18 04:09:33;;;;;;;4.82;1.40;;;9.20;99.90;;;;;;5054417;28;20025;-60
2022/09/18 04:11:59;;;;;;;3.45;1.38;;;9.30;99.90;;;;;;5054689;28;20032;-60
2022/09/18 04:14:25;;;;;;;4.47;1.30;;;9.20;99.90;;;;;;5054284;28;20029;-60
2022/09/18 04:16:50;;;;;;;3.53;1.30;;;9.30;99.90;;;;;;5054785;28;20033;-60
2022/09/18 04:19:16;;;;;;;4.65;1.42;;;9.20;99.90;;;;;;5054422;28;20481;-61
2022/09/18 04:21:42;;;;;;;4.22;1.48;;;9.10;99.90;;;;;;5053615;28;20057;-60
2022/09/18 04:24:08;;;;;;;4.10;1.40;;;9.10;99.90;;;;;;5054240;28;20021;-60
2022/09/18 04:26:34;;;;;;;4.13;1.42;;;9.00;99.90;;;;;;5054294;28;20501;-60
2022/09/18 04:29:01;;;;;;;4.13;1.10;;;9.00;99.90;;;;;;5054369;28;20057;-61
2022/09/18 04:31:27;;;;;;;4.32;1.48;;;8.80;99.90;;;;;;5054329;28;20071;-60
2022/09/18 04:33:52;;;;;;;3.72;1.20;;;8.90;99.90;;;;;;5054374;28;20052;-60
2022/09/18 04:36:18;;;;;;;6.22;1.40;;;8.90;99.90;;;;;;5053528;28;20036;-60
2022/09/18 04:38:44;;;;;;;2.13;1.10;;;8.80;99.90;;;;;;5054582;28;20441;-60
2022/09/18 04:41:10;;;;;;;4.25;1.30;;;8.80;99.90;;;;;;5053695;28;20106;-60
2022/09/18 04:43:35;;;;;;;5.38;1.80;;;8.80;99.90;;;;;;5053901;28;20032;-60
2022/09/18 04:46:01;;;;;;;4.15;1.35;;;8.60;99.90;;;;;;5053930;28;20402;-60
2022/09/18 04:48:27;;;;;;;2.15;1.23;;;8.50;99.90;;;;;;5053855;28;20025;-60
2022/09/18 04:50:53;;;;;;;3.80;1.30;;;8.50;99.90;;;;;;5053536;28;20025;-60
2022/09/18 04:53:19;;;;;;;3.55;1.30;;;8.50;99.90;;;;;;5053645;28;20053;-60
2022/09/18 04:55:46;;;;;;;2.88;1.30;;;8.40;99.90;;;;;;5053534;28;20110;-61
2022/09/18 04:58:13;;;;;;;6.78;1.85;;;8.40;99.90;;;;;;5053637;28;20489;-60
2022/09/18 05:00:39;;;;;;;4.13;1.30;;;8.50;99.90;;;;;;5053756;28;20028;-63
2022/09/18 05:03:05;;;;;;;4.88;1.52;;;8.40;99.90;;;;;;5052449;28;20044;-60
2022/09/18 05:05:31;;;;;;;4.15;1.40;;;8.20;99.90;;;;;;5053550;28;20017;-61
2022/09/18 05:07:59;;;;;;;2.28;1.42;;;8.10;99.90;;;;;;5053332;28;20330;-60
2022/09/18 05:10:24;;;;;;;2.15;1.20;;;8.00;99.90;;;;;;5053429;28;20017;-60
2022/09/18 05:12:50;;;;;;;4.22;1.50;;;7.90;99.90;;;;;;5052066;28;20052;-60
2022/09/18 05:15:17;;;;;;;4.05;1.30;;;8.00;99.90;;;;;;5053641;28;20052;-60
2022/09/18 05:17:43;;;;;;;6.00;1.60;;;7.90;99.90;;;;;;5052488;28;20025;-60
2022/09/18 05:20:09;;;;;;;2.67;1.20;;;7.90;99.90;;;;;;5052829;28;20564;-61
2022/09/18 05:22:35;;;;;;;3.88;1.40;;;7.90;99.90;;;;;;5053138;28;20053;-60
2022/09/18 05:25:02;;;;;;;3.20;1.30;;;7.90;99.90;;;;;;5053445;28;20070;-60
2022/09/18 05:27:27;;;;;;;4.30;1.30;;;7.80;99.90;;;;;;5053137;28;20395;-60
2022/09/18 05:29:53;;;;;;;3.00;1.23;;;7.70;99.90;;;;;;5053068;28;20028;-60
2022/09/18 05:32:19;;;;;;;3.20;1.20;;;7.70;99.90;;;;;;5052729;28;20035;-62
2022/09/18 05:34:48;;;;;;;4.93;1.23;;;7.80;99.90;;;;;;5035101;28;20033;-60
2022/09/18 05:37:15;;;;;;;3.33;1.30;;;7.80;99.90;;;;;;5052906;28;20106;-60
2022/09/18 05:39:41;;;;;;;4.15;1.35;;;7.80;99.90;;;;;;5052603;28;20527;-60
2022/09/18 05:42:07;;;;;;;6.65;1.42;;;7.70;99.90;;;;;;5052763;28;20049;-61
2022/09/18 05:44:33;;;;;;;3.53;1.40;;;7.60;99.90;;;;;;5052460;28;20040;-60
2022/09/18 05:46:58;;;;;;;6.20;1.70;;;7.50;99.90;;;;;;5052981;28;20032;-60
2022/09/18 05:49:24;;;;;;;5.50;1.30;;;7.70;99.90;;;;;;5052335;28;20633;-60
2022/09/18 05:51:50;;;;;;;6.03;1.40;;;7.70;99.90;;;;;;5052577;28;20036;-60
2022/09/18 05:54:16;;;;;;;2.35;1.20;;;7.70;99.90;;;;;;5052775;28;20028;-60
2022/09/18 05:56:41;;;;;;;3.80;1.38;;;7.60;99.90;;;;;;5051576;28;20037;-60
2022/09/18 05:59:07;;;;;;;3.97;1.67;;;7.70;99.90;;;;;;5052486;28;20029;-60
2022/09/18 06:01:33;;;;;;;2.85;1.33;;;7.60;99.90;;;;;;5052365;28;20516;-60
2022/09/18 06:03:58;;;;;;;6.25;1.58;;;7.60;99.90;;;;;;5050781;28;20024;-60
2022/09/18 06:06:28;;;;;;;4.00;1.25;;;7.60;99.90;;;;;;5052802;28;20359;-60
2022/09/18 06:08:53;;;;;;;4.97;1.42;;;7.60;99.90;;;;;;5052212;28;20029;-60
2022/09/18 06:11:19;;;;;;;3.90;1.20;;;7.70;99.90;;;;;;5051136;28;20024;-60
2022/09/18 06:13:50;;;;;;;5.10;1.70;;;7.70;99.90;;;;;;5052199;28;20033;-60
2022/09/18 06:16:16;;;;;;;3.28;1.50;;;7.80;99.90;;;;;;5051799;28;20041;-60
2022/09/18 06:18:42;;;;;;;3.40;1.50;;;8.00;99.90;;;;;;5052289;28;20052;-60
2022/09/18 06:21:08;;;;;;;3.88;1.45;;;8.20;99.90;;;;;;5052326;28;20552;-60
2022/09/18 06:23:34;;;;;;;5.38;1.58;;;8.50;99.90;;;;;;5052202;28;20029;-61
2022/09/18 06:26:02;;;;;;;3.58;1.35;;;9.30;99.90;;;;;;5052122;28;20025;-60
2022/09/18 06:28:31;;;;;;;4.80;1.55;;;9.90;99.90;;;;;;5052033;28;20068;-60
2022/09/18 06:30:57;;;;;;;5.72;1.50;;;10.50;99.90;;;;;;5051371;28;20033;-61
2022/09/18 06:33:23;;;;;;;4.97;1.40;;;11.10;99.90;;;;;;5052229;28;20028;-60
2022/09/18 06:35:49;;;;;;;5.60;1.85;;;11.10;99.90;;;;;;5051963;28;20065;-60
2022/09/18 06:38:15;;;;;;;4.43;1.45;;;11.40;99.90;;;;;;5051944;28;20033;-60
2022/09/18 06:54:16;;;;;;;3.92;1.58;;;12.30;99.90;;;;;;5109700;27;20376;-61
2022/09/18 06:56:44;;;;;;;3.85;1.40;;;13.40;99.90;;;;;;5109458;28;20032;-61
2022/09/18 06:59:09;;;;;;;3.20;1.48;;;13.40;99.90;;;;;;5109736;28;20107;-61
2022/09/18 07:01:35;;;;;;;3.28;1.50;;;13.90;99.90;;;;;;5109234;28;20443;-61
2022/09/18 07:04:01;;;;;;;4.07;1.50;;;13.90;99.90;;;;;;5109351;28;20050;-61
2022/09/18 07:06:27;;;;;;;6.40;1.60;;;14.50;99.90;;;;;;5109581;28;20081;-61
2022/09/18 07:08:52;;;;;;;6.20;1.65;;;14.00;99.90;;;;;;5109515;28;20030;-61
2022/09/18 07:11:18;;;;;;;3.35;1.25;;;13.70;99.90;;;;;;5109415;28;20052;-60
2022/09/18 07:13:46;;;;;;;5.07;1.45;;;14.00;99.90;;;;;;5109494;28;20028;-61
2022/09/18 07:16:12;;;;;;;3.97;1.50;;;14.10;99.90;;;;;;5109004;28;20020;-61
2022/09/18 07:18:38;;;;;;;4.28;1.38;;;15.00;99.90;;;;;;5109779;28;20016;-61
2022/09/18 07:21:04;;;;;;;6.63;1.58;;;14.60;99.90;;;;;;5109158;28;20032;-61
2022/09/18 07:23:31;;;;;;;2.55;1.40;;;15.70;99.90;;;;;;5109133;28;20055;-61
2022/09/18 07:26:02;;;;;;;3.85;1.40;;;15.80;99.90;;;;;;5109101;28;20114;-61
2022/09/18 07:28:28;;;;;;;4.07;1.50;;;15.90;99.90;;;;;;5109064;28;20099;-62
2022/09/18 07:30:54;;;;;;;3.58;1.92;;;17.20;99.90;;;;;;5109020;28;20028;-61
2022/09/18 07:33:20;;;;;;;3.33;1.50;;;17.10;98.90;;;;;;5109071;28;20020;-61
2022/09/18 07:35:46;;;;;;;2.65;1.50;;;17.70;99.00;;;;;;5108939;28;20038;-62
2022/09/18 07:38:12;;;;;;;3.15;1.40;;;17.30;98.20;;;;;;5108909;28;20032;-61
2022/09/18 07:40:40;;;;;;;3.03;1.40;;;17.00;98.30;;;;;;5109331;28;20032;-61
2022/09/18 07:43:09;;;;;;;6.45;1.77;;;17.70;97.60;;;;;;5108626;28;20035;-61
2022/09/18 07:45:36;;;;;;;3.97;1.20;;;17.10;97.30;;;;;;5107226;28;20031;-61
2022/09/18 07:48:04;;;;;;;4.10;1.30;;;17.30;97.60;;;;;;5086711;28;20064;-61
2022/09/18 07:50:30;;;;;;;3.53;1.42;;;17.70;96.40;;;;;;5088304;28;20542;-61
2022/09/18 07:52:58;;;;;;;3.90;1.40;;;17.30;96.90;;;;;;5088179;28;20063;-61
2022/09/18 07:55:25;;;;;;;4.47;1.50;;;16.40;97.20;;;;;;5074152;28;20025;-61
2022/09/18 07:57:59;;;;;;;3.05;1.30;;;17.10;97.30;;;;;;5075167;28;20036;-61
2022/09/18 08:00:25;;;;;;;2.65;1.15;;;17.70;95.40;;;;;;5074846;28;20262;-61
2022/09/18 08:03:10;;;;;;;4.65;1.42;;;17.80;95.60;;;;;;5074700;28;20048;-60
2022/09/18 08:05:37;;;;;;;4.15;1.30;;;17.00;95.40;;;;;;5073326;28;20028;-61
2022/09/18 08:08:11;;;;;;;3.28;1.25;;;19.50;95.10;;;;;;5090193;28;20402;-61
2022/09/18 08:10:38;;;;;;;4.35;1.35;;;19.50;94.30;;;;;;5074502;28;20510;-61
2022/09/18 08:13:05;;;;;;;4.80;1.40;;;19.50;92.70;;;;;;5074734;28;20035;-61
2022/09/18 08:15:32;;;;;;;3.95;1.30;;;17.90;94.60;;;;;;5073998;28;20059;-61
2022/09/18 08:17:59;;;;;;;2.40;1.10;;;18.80;93.10;;;;;;5074355;28;20054;-60
2022/09/18 08:20:25;;;;;;;3.38;1.40;;;18.60;93.10;;;;;;5074418;28;20513;-61
2022/09/18 08:22:51;;;;;;;3.30;1.25;;;17.70;94.00;;;;;;5094239;28;20518;-61
2022/09/18 08:25:17;;;;;;;2.67;1.10;;;18.50;93.50;;;;;;5094475;28;20127;-61
2022/09/18 08:27:43;;;;;;;2.75;1.10;;;18.00;93.50;;;;;;5094344;28;20035;-61
2022/09/18 08:30:12;;;;;;;3.95;1.55;;;19.80;92.40;;;;;;5094248;28;20020;-61
2022/09/18 08:32:38;;;;;;;3.15;1.30;;;19.80;91.80;;;;;;5094455;28;20036;-61
2022/09/18 08:35:04;;;;;;;3.78;1.30;;;20.00;91.60;;;;;;5127078;27;20453;-61
2022/09/18 08:37:31;;;;;;;4.18;1.45;;;20.40;91.50;;;;;;5094546;28;20032;-61
2022/09/18 08:39:57;;;;;;;3.25;1.23;;;19.30;90.50;;;;;;5094205;28;20504;-61
2022/09/18 08:42:41;;;;;;;3.25;1.27;;;19.00;91.70;;;;;;5093878;28;20035;-61
2022/09/18 08:45:16;;;;;;;3.42;1.27;;;18.60;90.60;;;;;;5094069;28;20401;-60
2022/09/18 08:47:51;;;;;;;4.57;1.50;;;19.70;90.90;;;;;;5094091;28;20024;-61
2022/09/18 08:50:27;;;;;;;4.03;1.27;;;21.50;90.00;;;;;;5094316;28;20034;-61
2022/09/18 08:53:03;;;;;;;3.35;1.40;;;22.30;87.70;;;;;;5093747;28;20128;-61
2022/09/18 08:55:35;;;;;;;6.40;1.52;;;22.60;84.50;;;;;;5093659;28;20390;-61
2022/09/18 08:58:15;;;;;;;5.63;1.50;;;24.40;82.50;;;;;;5093250;28;20038;-61
2022/09/18 09:00:44;;;;;;;2.85;1.42;;;21.60;82.80;;;;;;5094070;28;20032;-61
2022/09/18 09:03:38;;;;;;;5.25;1.50;;;23.50;83.80;;;;;;5092753;28;20032;-61
2022/09/18 09:06:18;;;;;;;5.53;1.40;;;22.60;81.50;;;;;;5092617;28;20020;-61
2022/09/18 09:09:05;;;;;;;4.75;1.73;;;21.50;82.50;;;;;;5093058;28;20055;-60
2022/09/18 09:11:57;;;;;;;4.35;1.30;;;23.00;80.80;;;;;;5093568;28;20389;-60
2022/09/18 09:14:59;;;;;;;3.90;1.27;;;22.90;81.40;;;;;;5093450;28;20028;-60
2022/09/18 09:17:48;;;;;;;4.85;1.30;;;22.00;81.50;;;;;;5093392;28;20513;-60
2022/09/18 09:20:40;;;;;;;3.92;1.52;;;21.70;82.80;;;;;;5093100;28;20035;-60
2022/09/18 09:23:20;;;;;;;2.92;1.30;;;23.00;80.60;;;;;;5084727;28;20406;-59
2022/09/18 09:26:14;;;;;;;5.22;1.80;;;24.00;78.20;;;;;;5091459;28;20047;-60
2022/09/18 09:29:00;;;;;;;4.47;1.40;;;23.70;77.70;;;;;;5091834;28;20040;-60
2022/09/18 09:31:34;;;;;;;4.05;1.50;;;26.80;75.80;;;;;;5092977;28;20020;-60
2022/09/18 09:34:12;;;;;;;3.85;1.55;;;26.10;74.40;;;;;;5092941;28;20521;-61
2022/09/18 09:36:42;;;;;;;3.88;1.48;;;26.90;75.20;;;;;;5092492;28;20501;-60
2022/09/18 09:39:17;;;;;;;3.78;1.30;;;27.00;74.40;;;;;;5092957;28;20032;-61
2022/09/18 09:42:08;;;;;;;4.65;1.50;;;27.70;74.00;;;;;;5092692;28;20456;-61
2022/09/18 09:44:39;;;;;;;2.80;1.30;;;26.40;74.40;;;;;;5083903;28;20048;-62
2022/09/18 09:47:24;;;;;;;2.45;1.25;;;29.10;71.90;;;;;;5092001;28;20105;-61
2022/09/18 09:50:07;;;;;;;3.13;1.38;;;28.70;70.70;;;;;;5090035;28;20546;-60
2022/09/18 09:52:35;;;;;;;;;;;26.30;71.40;;;;;;5092226;28;20036;-62
2022/09/18 09:55:13;;;;;;;2.70;1.30;;;27.80;72.60;;;;;;5092369;28;19908;-61
2022/09/18 09:57:43;;;;;;;2.03;1.10;;;27.80;71.40;;;;;;5092376;28;20034;-62
2022/09/18 10:00:18;;;;;;;3.85;1.40;;;28.10;70.60;;;;;;5092793;28;20032;-62
2022/09/18 10:03:01;;;;;;;2.53;1.30;;;28.40;69.60;;;;;;5092575;28;20044;-62
2022/09/18 10:05:42;;;;;;;4.70;1.42;;;29.80;69.00;;;;;;5092534;28;20094;-62
2022/09/18 10:08:14;;;;;;;1.70;1.05;;;30.00;67.20;;;;;;5092174;28;20071;-61
2022/09/18 10:10:48;;;;;;;4.22;1.40;;;27.40;68.60;;;;;;5092535;28;20531;-61
2022/09/18 10:13:37;;;;;;;4.13;1.50;;;29.40;66.80;;;;;;5091847;28;20084;-60
2022/09/18 10:16:14;;;;;;;3.03;1.75;;;28.80;65.20;;;;;;5091765;28;20024;-60
2022/09/18 10:18:44;;;;;;;4.03;1.30;;;29.60;66.60;;;;;;5092387;28;20024;-61
2022/09/18 10:21:12;;;;;;;3.42;1.08;;;29.50;65.00;;;;;;5092139;28;20031;-61
2022/09/18 10:24:05;;;;;;;2.28;1.30;;;26.00;65.00;;;;;;5091751;28;20040;-61
2022/09/18 10:26:36;;;;;;;2.35;1.20;;;29.40;64.50;;;;;;5091447;28;20035;-64
2022/09/18 10:29:02;;;;;;;4.05;1.35;;;30.40;63.70;;;;;;5092372;28;20034;-61
2022/09/18 10:31:54;;;;;;;14.48;2.55;;;26.20;64.00;;;;;;5092206;28;20094;-61
2022/09/18 10:34:48;;;;;;;3.58;1.30;;;28.10;66.10;;;;;;5091683;28;20036;-61
2022/09/18 10:37:27;;;;;;;4.43;1.35;;;29.00;64.40;;;;;;5091899;28;20470;-61
2022/09/18 10:39:56;;;;;;;5.45;1.67;;;28.70;64.00;;;;;;5091747;28;20397;-60
2022/09/18 10:42:25;;;;;;;4.30;1.58;;;28.60;64.00;;;;;;5092007;28;20051;-60
2022/09/18 10:44:53;;;;;;;3.70;1.60;;;27.80;65.00;;;;;;5092057;28;20024;-60
2022/09/18 10:47:23;;;;;;;2.55;1.20;;;30.10;61.90;;;;;;5092012;28;20021;-61
2022/09/18 10:49:57;;;;;;;3.70;1.25;;;28.90;60.70;;;;;;5091443;28;20431;-61
2022/09/18 10:52:31;;;;;;;3.33;1.20;;;27.60;62.50;;;;;;5091898;28;20103;-57
2022/09/18 10:54:58;;;;;;;4.43;1.60;;;30.20;61.10;;;;;;5091804;28;20040;-59
2022/09/18 10:57:33;;;;;;;5.78;1.80;;;30.80;60.80;;;;;;5092257;28;20389;-57
2022/09/18 11:00:01;;;;;;;3.17;1.10;;;31.00;59.50;;;;;;5091632;28;20028;-57
2022/09/18 11:02:37;;;;;;;3.47;1.58;;;29.20;60.30;;;;;;5092343;28;20063;-57
2022/09/18 11:05:03;;;;;;;3.67;1.40;;;29.50;60.30;;;;;;5091973;28;20028;-57
2022/09/18 11:07:30;;;;;;;2.58;1.00;;;28.30;62.50;;;;;;5091541;28;20111;-57
2022/09/18 11:09:55;;;;;;;2.55;1.10;;;27.50;62.50;;;;;;5091618;28;20051;-57
2022/09/18 11:12:29;;;;;;;4.30;1.35;;;26.10;62.10;;;;;;5091514;28;20104;-57
2022/09/18 11:15:04;;;;;;;3.05;0.93;;;24.60;62.20;;;;;;5091829;28;20032;-58
2022/09/18 11:17:32;;;;;;;3.17;1.10;;;24.40;62.50;;;;;;5091277;28;20028;-58
2022/09/18 11:20:00;;;;;;;3.00;1.02;;;24.10;64.80;;;;;;5091964;28;20468;-58
2022/09/18 11:22:34;;;;;;;2.80;1.20;;;23.90;64.20;;;;;;5091740;28;20048;-58
2022/09/18 11:25:17;;;;;;;2.40;1.10;;;23.70;62.50;;;;;;5091249;28;20032;-58
2022/09/18 11:27:56;;;;;;;1.73;1.00;;;23.70;62.20;;;;;;5091724;28;20449;-57
2022/09/18 11:30:27;;;;;;;2.25;0.98;;;23.50;67.00;;;;;;5094888;28;20079;-58
2022/09/18 11:33:28;;;;;;;2.25;0.90;;;23.40;79.30;;;;;;5095705;28;20023;-57
2022/09/18 11:36:00;;;;;;;2.75;1.00;;;23.30;67.70;;;;;;5095047;28;20532;-57
2022/09/18 11:38:27;;;;;;;4.07;1.20;;;22.90;62.00;;;;;;5095229;28;20024;-57
2022/09/18 11:40:55;;;;;;;2.55;1.50;;;23.20;61.30;;;;;;5095757;28;20036;-58
2022/09/18 11:43:43;;;;;;;3.15;1.75;;;22.90;62.20;;;;;;5095210;28;20032;-56
2022/09/18 11:46:49;;;;;;;2.13;1.10;;;22.70;64.00;;;;;;5094475;28;20132;-57
2022/09/18 11:49:29;;;;;;;2.55;1.10;;;22.80;63.90;;;;;;5088554;28;20064;-57
2022/09/18 11:52:14;;;;;;;3.33;1.10;;;22.90;65.00;;;;;;5094517;28;20030;-57
2022/09/18 11:55:09;;;;;;;2.80;1.30;;;22.70;61.90;;;;;;5094561;28;20036;-58
2022/09/18 11:57:39;;;;;;;2.88;1.10;;;22.40;61.30;;;;;;5095144;28;20020;-57
2022/09/18 12:00:13;;;;;;;3.22;1.10;;;22.90;66.50;;;;;;5095167;28;20107;-57
2022/09/18 12:03:11;;;;;;;2.45;1.08;;;22.80;61.30;;;;;;5094498;28;20057;-56
2022/09/18 12:05:37;;;;;;;1.88;1.00;;;22.70;60.90;;;;;;5093834;28;20039;-57
2022/09/18 12:08:22;;;;;;;3.28;1.20;;;22.90;62.50;;;;;;5094942;28;20497;-56
2022/09/18 12:10:47;;;;;;;4.38;1.02;;;23.30;61.30;;;;;;5094597;28;20032;-57
2022/09/18 12:13:49;;;;;;;1.90;1.10;;;22.80;61.40;;;;;;5094755;28;20036;-57
2022/09/18 12:16:19;;;;;;;5.05;1.20;;;23.00;63.20;;;;;;5095012;28;20035;-57
2022/09/18 12:19:05;;;;;;;3.08;1.00;;;23.10;64.00;;;;;;5094546;28;20024;-56
2022/09/18 12:21:42;;;;;;;2.40;0.90;;;23.20;61.50;;;;;;5093788;28;20027;-56
2022/09/18 12:24:17;;;;;;;2.75;0.95;;;23.00;62.10;;;;;;5094495;28;20035;-56
2022/09/18 12:26:58;;;;;;;7.55;1.83;;;23.10;61.80;;;;;;5094774;28;20085;-54
2022/09/18 12:29:42;;;;;;;5.93;1.48;;;23.20;61.80;;;;;;5094660;28;20032;-56
2022/09/18 12:32:38;;;;;;;2.10;1.10;;;23.00;61.80;;;;;;5093941;28;20390;-55
2022/09/18 12:35:16;;;;;;;3.50;0.93;;;22.90;59.60;;;;;;5093989;28;20107;-56
2022/09/18 12:38:14;;;;;;;1.38;0.90;;;22.80;60.10;;;;;;5094764;28;20149;-56
2022/09/18 12:41:00;;;;;;;3.05;1.27;;;22.70;60.50;;;;;;5094007;28;20095;-55
2022/09/18 12:43:42;;;;;;;43.60;7.45;;;23.20;61.10;;;;;;5094161;28;20044;-54
2022/09/18 12:46:32;;;;;;;16.88;3.15;;;23.20;62.80;;;;;;5093930;28;20047;-56
2022/09/18 12:49:06;;;;;;;33.30;5.47;;;23.30;62.00;;;;;;5093622;28;20060;-55
2022/09/18 12:51:48;;;;;;;2.40;1.08;;;23.40;63.10;;;;;;5093971;28;20074;-53
2022/09/18 12:54:42;;;;;;;8.23;2.00;;;23.50;60.60;;;;;;5093697;28;20533;-60
2022/09/18 12:57:32;;;;;;;3.28;1.02;;;23.40;61.40;;;;;;5094017;28;20097;-56
2022/09/18 13:00:08;;;;;;;1.45;0.90;;;23.50;60.20;;;;;;5093745;28;20032;-57
2022/09/18 13:02:52;;;;;;;2.40;1.08;;;23.50;60.90;;;;;;5093679;28;20822;-55
2022/09/18 13:05:27;;;;;;;4.63;1.60;;;23.70;61.50;;;;;;5093147;28;20031;-56
2022/09/18 13:08:02;;;;;;;1.92;0.95;;;23.70;61.50;;;;;;5093724;28;20031;-61
2022/09/18 13:10:32;;;;;;;2.20;1.10;;;;;;;;;;5093460;28;20032;-57
2022/09/18 13:12:59;;;;;;;1.33;1.05;;;25.10;59.30;;;;;;5093329;28;20401;-55
2022/09/18 13:15:34;;;;;;;1.83;1.00;;;25.10;58.40;;;;;;5093623;28;20024;-63
2022/09/18 13:18:34;;;;;;;2.42;1.00;;;24.60;60.40;;;;;;5093002;28;20404;-65
2022/09/18 13:21:02;;;;;;;4.65;1.10;;;;;;;;;;5093650;28;20024;-61
2022/09/18 13:23:39;;;;;;;2.33;1.02;;;23.90;60.80;;;;;;5093146;28;20078;-61
2022/09/18 13:26:10;;;;;;;1.35;0.93;;;22.70;65.50;;;;;;5093066;28;20016;-56
2022/09/18 13:28:38;;;;;;;5.05;1.27;;;23.70;59.30;;;;;;5093289;28;20035;-56
2022/09/18 13:31:13;;;;;;;2.42;1.15;;;23.40;62.20;;;;;;5091745;28;20117;-56